<?xml version="1.0" encoding="UTF-8" standalone="no" ?>
<gpx xmlns="http://www.topografix.com/GPX/1/1" xmlns:xsi="http://www.w3.org/2001/XMLSchema-instance" xsi:schemaLocation="http://www.topografix.com/GPX/1/1 http://www.topografix.com/GPX/1/1/gpx.xsd" version="1.1" creator="VisuGPX - https://www.visugpx.com">
  <metadata>
    <name>2021 07 04-Mont t'Affrique</name>
  </metadata>
  <trk>
    <name><![CDATA[12622823-Mont t'Affrique]]></name>
    <trkseg>
      <trkpt lat="47.31719" lon="4.91179">
        <ele>267</ele>
        <time>2021-04-04T16:26:53Z</time>
      </trkpt>
      <trkpt lat="47.3174" lon="4.91287">
        <ele>267</ele>
        <time>2021-04-04T16:27:54Z</time>
      </trkpt>
      <trkpt lat="47.31644" lon="4.91255">
        <ele>270</ele>
        <time>2021-04-04T16:29:13Z</time>
      </trkpt>
      <trkpt lat="47.31525" lon="4.9125">
        <ele>274</ele>
        <time>2021-04-04T16:30:48Z</time>
      </trkpt>
      <trkpt lat="47.3151" lon="4.91286">
        <ele>274</ele>
        <time>2021-04-04T16:31:11Z</time>
      </trkpt>
      <trkpt lat="47.31451" lon="4.91322">
        <ele>273</ele>
        <time>2021-04-04T16:32:02Z</time>
      </trkpt>
      <trkpt lat="47.31334" lon="4.91564">
        <ele>287</ele>
        <time>2021-04-04T16:34:44Z</time>
      </trkpt>
      <trkpt lat="47.3042" lon="4.92295">
        <ele>429</ele>
        <time>2021-04-04T16:48:36Z</time>
      </trkpt>
      <trkpt lat="47.30217" lon="4.92629">
        <ele>457</ele>
        <time>2021-04-04T16:52:40Z</time>
      </trkpt>
      <trkpt lat="47.30027" lon="4.92665">
        <ele>498</ele>
        <time>2021-04-04T16:55:13Z</time>
      </trkpt>
      <trkpt lat="47.29934" lon="4.92517">
        <ele>503</ele>
        <time>2021-04-04T16:57:02Z</time>
      </trkpt>
      <trkpt lat="47.2985" lon="4.92757">
        <ele>575</ele>
        <time>2021-04-04T16:59:29Z</time>
      </trkpt>
      <trkpt lat="47.29705" lon="4.92568">
        <ele>580</ele>
        <time>2021-04-04T17:02:04Z</time>
      </trkpt>
      <trkpt lat="47.29352" lon="4.92486">
        <ele>591</ele>
        <time>2021-04-04T17:06:50Z</time>
      </trkpt>
      <trkpt lat="47.28989" lon="4.92282">
        <ele>586</ele>
        <time>2021-04-04T17:12:01Z</time>
      </trkpt>
      <trkpt lat="47.29085" lon="4.91848">
        <ele>462</ele>
        <time>2021-04-04T17:16:09Z</time>
      </trkpt>
      <trkpt lat="47.29272" lon="4.91522">
        <ele>388</ele>
        <time>2021-04-04T17:20:01Z</time>
      </trkpt>
      <trkpt lat="47.29397" lon="4.91394">
        <ele>358</ele>
        <time>2021-04-04T17:22:03Z</time>
      </trkpt>
      <trkpt lat="47.29643" lon="4.90169">
        <ele>566</ele>
        <time>2021-04-04T17:33:37Z</time>
      </trkpt>
      <trkpt lat="47.29383" lon="4.90277">
        <ele>572</ele>
        <time>2021-04-04T17:37:13Z</time>
      </trkpt>
      <trkpt lat="47.29203" lon="4.90379">
        <ele>567</ele>
        <time>2021-04-04T17:39:47Z</time>
      </trkpt>
      <trkpt lat="47.2885" lon="4.90277">
        <ele>539</ele>
        <time>2021-04-04T17:44:35Z</time>
      </trkpt>
      <trkpt lat="47.28379" lon="4.89945">
        <ele>536</ele>
        <time>2021-04-04T17:51:33Z</time>
      </trkpt>
      <trkpt lat="47.28234" lon="4.89858">
        <ele>539</ele>
        <time>2021-04-04T17:53:39Z</time>
      </trkpt>
      <trkpt lat="47.27995" lon="4.89562">
        <ele>535</ele>
        <time>2021-04-04T17:57:49Z</time>
      </trkpt>
      <trkpt lat="47.27742" lon="4.89679">
        <ele>513</ele>
        <time>2021-04-04T18:01:21Z</time>
      </trkpt>
      <trkpt lat="47.27611" lon="4.897">
        <ele>506</ele>
        <time>2021-04-04T18:03:06Z</time>
      </trkpt>
      <trkpt lat="47.27507" lon="4.89761">
        <ele>501</ele>
        <time>2021-04-04T18:04:36Z</time>
      </trkpt>
      <trkpt lat="47.2742" lon="4.90256">
        <ele>456</ele>
        <time>2021-04-04T18:09:14Z</time>
      </trkpt>
      <trkpt lat="47.27489" lon="4.90358">
        <ele>428</ele>
        <time>2021-04-04T18:10:32Z</time>
      </trkpt>
      <trkpt lat="47.27444" lon="4.90552">
        <ele>405</ele>
        <time>2021-04-04T18:12:24Z</time>
      </trkpt>
      <trkpt lat="47.27316" lon="4.90782">
        <ele>396</ele>
        <time>2021-04-04T18:15:05Z</time>
      </trkpt>
      <trkpt lat="47.27597" lon="4.91027">
        <ele>455</ele>
        <time>2021-04-04T18:19:27Z</time>
      </trkpt>
      <trkpt lat="47.27874" lon="4.9168">
        <ele>499</ele>
        <time>2021-04-04T18:26:25Z</time>
      </trkpt>
      <trkpt lat="47.28026" lon="4.91726">
        <ele>515</ele>
        <time>2021-04-04T18:28:29Z</time>
      </trkpt>
      <trkpt lat="47.27952" lon="4.91939">
        <ele>526</ele>
        <time>2021-04-04T18:30:39Z</time>
      </trkpt>
      <trkpt lat="47.2845" lon="4.92613">
        <ele>575</ele>
        <time>2021-04-04T18:39:40Z</time>
      </trkpt>
      <trkpt lat="47.28533" lon="4.92916">
        <ele>586</ele>
        <time>2021-04-04T18:42:38Z</time>
      </trkpt>
      <trkpt lat="47.28685" lon="4.92915">
        <ele>586</ele>
        <time>2021-04-04T18:44:40Z</time>
      </trkpt>
      <trkpt lat="47.2881" lon="4.92727">
        <ele>577</ele>
        <time>2021-04-04T18:47:03Z</time>
      </trkpt>
      <trkpt lat="47.29023" lon="4.92749">
        <ele>573</ele>
        <time>2021-04-04T18:49:54Z</time>
      </trkpt>
      <trkpt lat="47.29202" lon="4.93016">
        <ele>567</ele>
        <time>2021-04-04T18:53:17Z</time>
      </trkpt>
      <trkpt lat="47.29463" lon="4.93389">
        <ele>541</ele>
        <time>2021-04-04T18:58:08Z</time>
      </trkpt>
      <trkpt lat="47.29615" lon="4.93729">
        <ele>486</ele>
        <time>2021-04-04T19:01:50Z</time>
      </trkpt>
      <trkpt lat="47.29801" lon="4.93584">
        <ele>502</ele>
        <time>2021-04-04T19:04:38Z</time>
      </trkpt>
      <trkpt lat="47.29982" lon="4.93244">
        <ele>500</ele>
        <time>2021-04-04T19:08:33Z</time>
      </trkpt>
      <trkpt lat="47.30044" lon="4.92831">
        <ele>506</ele>
        <time>2021-04-04T19:12:22Z</time>
      </trkpt>
      <trkpt lat="47.29831" lon="4.92024">
        <ele>447</ele>
        <time>2021-04-04T19:20:13Z</time>
      </trkpt>
      <trkpt lat="47.2986" lon="4.91432">
        <ele>322</ele>
        <time>2021-04-04T19:25:35Z</time>
      </trkpt>
      <trkpt lat="47.29911" lon="4.91457">
        <ele>322</ele>
        <time>2021-04-04T19:26:18Z</time>
      </trkpt>
      <trkpt lat="47.29984" lon="4.91043">
        <ele>405</ele>
        <time>2021-04-04T19:30:10Z</time>
      </trkpt>
      <trkpt lat="47.30167" lon="4.91131">
        <ele>384</ele>
        <time>2021-04-04T19:32:44Z</time>
      </trkpt>
      <trkpt lat="47.30347" lon="4.91069">
        <ele>352</ele>
        <time>2021-04-04T19:35:12Z</time>
      </trkpt>
      <trkpt lat="47.30338" lon="4.90921">
        <ele>345</ele>
        <time>2021-04-04T19:36:33Z</time>
      </trkpt>
      <trkpt lat="47.30516" lon="4.90504">
        <ele>411</ele>
        <time>2021-04-04T19:41:01Z</time>
      </trkpt>
      <trkpt lat="47.30421" lon="4.90468">
        <ele>422</ele>
        <time>2021-04-04T19:42:19Z</time>
      </trkpt>
      <trkpt lat="47.30418" lon="4.90318">
        <ele>456</ele>
        <time>2021-04-04T19:43:41Z</time>
      </trkpt>
      <trkpt lat="47.30398" lon="4.90331">
        <ele>452</ele>
        <time>2021-04-04T19:43:58Z</time>
      </trkpt>
      <trkpt lat="47.30396" lon="4.90231">
        <ele>486</ele>
        <time>2021-04-04T19:44:52Z</time>
      </trkpt>
      <trkpt lat="47.30336" lon="4.90139">
        <ele>525</ele>
        <time>2021-04-04T19:46:02Z</time>
      </trkpt>
      <trkpt lat="47.30389" lon="4.90145">
        <ele>517</ele>
        <time>2021-04-04T19:46:44Z</time>
      </trkpt>
      <trkpt lat="47.304" lon="4.90105">
        <ele>525</ele>
        <time>2021-04-04T19:47:08Z</time>
      </trkpt>
      <trkpt lat="47.30371" lon="4.90072">
        <ele>533</ele>
        <time>2021-04-04T19:47:37Z</time>
      </trkpt>
      <trkpt lat="47.30455" lon="4.9009">
        <ele>516</ele>
        <time>2021-04-04T19:48:45Z</time>
      </trkpt>
      <trkpt lat="47.30454" lon="4.90022">
        <ele>512</ele>
        <time>2021-04-04T19:49:22Z</time>
      </trkpt>
      <trkpt lat="47.30492" lon="4.90025">
        <ele>502</ele>
        <time>2021-04-04T19:49:52Z</time>
      </trkpt>
      <trkpt lat="47.30564" lon="4.9006">
        <ele>478</ele>
        <time>2021-04-04T19:50:53Z</time>
      </trkpt>
      <trkpt lat="47.30606" lon="4.90072">
        <ele>464</ele>
        <time>2021-04-04T19:51:27Z</time>
      </trkpt>
      <trkpt lat="47.30606" lon="4.89922">
        <ele>450</ele>
        <time>2021-04-04T19:52:49Z</time>
      </trkpt>
      <trkpt lat="47.30677" lon="4.90022">
        <ele>440</ele>
        <time>2021-04-04T19:54:07Z</time>
      </trkpt>
      <trkpt lat="47.30747" lon="4.90196">
        <ele>424</ele>
        <time>2021-04-04T19:55:57Z</time>
      </trkpt>
      <trkpt lat="47.3077" lon="4.90292">
        <ele>412</ele>
        <time>2021-04-04T19:56:53Z</time>
      </trkpt>
      <trkpt lat="47.30915" lon="4.90309">
        <ele>394</ele>
        <time>2021-04-04T19:58:49Z</time>
      </trkpt>
      <trkpt lat="47.31053" lon="4.90618">
        <ele>375</ele>
        <time>2021-04-04T20:02:10Z</time>
      </trkpt>
      <trkpt lat="47.31128" lon="4.90788">
        <ele>356</ele>
        <time>2021-04-04T20:04:00Z</time>
      </trkpt>
      <trkpt lat="47.3131" lon="4.90843">
        <ele>336</ele>
        <time>2021-04-04T20:06:29Z</time>
      </trkpt>
      <trkpt lat="47.31393" lon="4.91025">
        <ele>306</ele>
        <time>2021-04-04T20:08:28Z</time>
      </trkpt>
      <trkpt lat="47.31525" lon="4.91102">
        <ele>285</ele>
        <time>2021-04-04T20:10:21Z</time>
      </trkpt>
      <trkpt lat="47.31726" lon="4.91266">
        <ele>267</ele>
        <time>2021-04-04T20:13:25Z</time>
      </trkpt>
      <trkpt lat="47.31719" lon="4.91179">
        <ele>267</ele>
        <time>2021-04-04T20:14:13Z</time>
      </trkpt>
    </trkseg>
  </trk>
</gpx>